Time;durP1;ratioP1;P1;durP2;ratioP2;P2;SDS_P1;SDS_P2;PMS_P1;PMS_P2;Temp;Humidity;BMP_temperature;BMP_pressure;BME280_temperature;BME280_humidity;BME280_pressure;Samples;Min_cycle;Max_cycle;Signal;HPM_P1;HPM_P2
2023/09/27 00:00:04;;;;;;;;;;;;;;;;;;4832517;29;20028;-60
2023/09/27 00:02:38;;;;;;;;;;;;;;;;;;4829673;29;20023;-60
2023/09/27 00:05:06;;;;;;;;;;;;;;;;;;4834327;29;19932;-60
2023/09/27 00:07:33;;;;;;;;;;;;;;;;;;4823453;29;19994;-60
2023/09/27 00:09:59;;;;;;;;;;;;;;;;;;4831275;29;19932;-60
2023/09/27 00:12:26;;;;;;;;;;;;;;;;;;4832358;29;20385;-60
2023/09/27 00:14:53;;;;;;;;;;;;;;;;;;4830911;29;20405;-60
2023/09/27 00:17:20;;;;;;;;;;;;;;;;;;4839059;29;19933;-60
2023/09/27 00:19:46;;;;;;;;;;;;;;;;;;4832889;29;21377;-60
2023/09/27 00:22:13;;;;;;;;;;;;;;;;;;4843813;29;20031;-59
2023/09/27 00:24:40;;;;;;;;;;;;;;;;;;4841363;29;20018;-60
2023/09/27 00:27:07;;;;;;;;;;;;;;;;;;4835755;29;19928;-60
2023/09/27 00:29:34;;;;;;;;;;;;;;;;;;4832726;29;20377;-60
2023/09/27 00:32:00;;;;;;;;;;;;;;;;;;4814784;29;19939;-60
2023/09/27 00:34:27;;;;;;;;;;;;;;;;;;4830236;29;19929;-60
2023/09/27 00:36:53;;;;;;;;;;;;;;;;;;4829480;29;19937;-60
2023/09/27 00:39:20;;;;;;;;;;;;;;;;;;4815160;29;20028;-60
2023/09/27 00:41:46;;;;;;;;;;;;;;;;;;4835057;29;20473;-60
2023/09/27 00:44:13;;;;;;;;;;;;;;;;;;4842089;29;19988;-60
2023/09/27 00:46:40;;;;;;;;;;;;;;;;;;4818145;29;19940;-60
2023/09/27 00:49:06;;;;;;;;;;;;;;;;;;4817450;29;19928;-60
2023/09/27 00:51:33;;;;;;;;;;;;;;;;;;4829995;29;20031;-60
2023/09/27 00:53:59;;;;;;;;;;;;;;;;;;4840711;29;19992;-60
2023/09/27 00:56:26;;;;;;;;;;;;;;;;;;4810608;29;20657;-60
2023/09/27 00:58:54;;;;;;;;;;;;;;;;;;4835098;29;19933;-60
2023/09/27 01:01:20;;;;;;;;;;;;;;;;;;4835735;29;20275;-60
2023/09/27 01:03:47;;;;;;;;;;;;;;;;;;4834709;29;19933;-60
2023/09/27 01:06:13;;;;;;;;;;;;;;;;;;4830868;29;19929;-60
2023/09/27 01:08:41;;;;;;;;;;;;;;;;;;4830830;29;20051;-60
2023/09/27 01:11:08;;;;;;;;;;;;;;;;;;4827725;29;19928;-60
2023/09/27 01:13:34;;;;;;;;;;;;;;;;;;4834886;29;20003;-60
2023/09/27 01:16:01;;;;;;;;;;;;;;;;;;4827133;29;19939;-60
2023/09/27 01:18:28;;;;;;;;;;;;;;;;;;4820011;29;19975;-60
2023/09/27 01:20:54;;;;;;;;;;;;;;;;;;4833712;29;19929;-60
2023/09/27 01:23:21;;;;;;;;;;;;;;;;;;4833419;29;20072;-60
2023/09/27 01:25:48;;;;;;;;;;;;;;;;;;4836887;29;20829;-60
2023/09/27 01:28:14;;;;;;;;;;;;;;;;;;4823115;29;19939;-60
2023/09/27 01:30:42;;;;;;;;;;;;;;;;;;4831510;29;19940;-60
2023/09/27 01:33:08;;;;;;;;;;;;;;;;;;4829771;29;19939;-60
2023/09/27 01:35:35;;;;;;;;;;;;;;;;;;4830640;29;19932;-60
2023/09/27 01:38:02;;;;;;;;;;;;;;;;;;4835968;29;19963;-60
2023/09/27 01:40:30;;;;;;;;;;;;;;;;;;4830826;29;19932;-60
2023/09/27 01:42:56;;;;;;;;;;;;;;;;;;4831163;29;19932;-60
2023/09/27 01:45:23;;;;;;;;;;;;;;;;;;4840721;29;19947;-60
2023/09/27 01:47:50;;;;;;;;;;;;;;;;;;4833971;29;19937;-60
2023/09/27 01:50:18;;;;;;;;;;;;;;;;;;4829446;29;19929;-61
2023/09/27 01:52:45;;;;;;;;;;;;;;;;;;4831239;29;19932;-60
2023/09/27 01:55:11;;;;;;;;;;;;;;;;;;4817004;29;19988;-60
2023/09/27 01:57:38;;;;;;;;;;;;;;;;;;4833944;29;19928;-60
2023/09/27 02:00:08;;;;;;;;;;;;;;;;;;4839483;29;19963;-60
2023/09/27 02:02:38;;;;;;;;;;;;;;;;;;4821809;29;19966;-59
2023/09/27 02:05:05;;;;;;;;;;;;;;;;;;4824628;29;19963;-60
2023/09/27 02:07:31;;;;;;;;;;;;;;;;;;4823004;29;19932;-60
2023/09/27 02:09:58;;;;;;;;;;;;;;;;;;4816540;29;19981;-60
2023/09/27 02:12:24;;;;;;;;;;;;;;;;;;4833801;29;20233;-60
2023/09/27 02:14:51;;;;;;;;;;;;;;;;;;4821045;29;20460;-60
2023/09/27 02:17:20;;;;;;;;;;;;;;;;;;4813246;29;19933;-60
2023/09/27 02:19:46;;;;;;;;;;;;;;;;;;4826470;29;19928;-60
2023/09/27 02:22:13;;;;;;;;;;;;;;;;;;4826268;29;20303;-60
2023/09/27 02:24:40;;;;;;;;;;;;;;;;;;4816000;29;19932;-60
2023/09/27 02:27:06;;;;;;;;;;;;;;;;;;4834642;29;19928;-60
2023/09/27 02:29:33;;;;;;;;;;;;;;;;;;4817978;29;20043;-60
2023/09/27 02:32:01;;;;;;;;;;;;;;;;;;4817586;29;20379;-60
2023/09/27 02:34:29;;;;;;;;;;;;;;;;;;4837707;29;19964;-60
2023/09/27 02:36:56;;;;;;;;;;;;;;;;;;4829933;29;19939;-60
2023/09/27 02:39:22;;;;;;;;;;;;;;;;;;4820780;29;19939;-60
2023/09/27 02:41:49;;;;;;;;;;;;;;;;;;4815107;29;19989;-60
2023/09/27 02:44:16;;;;;;;;;;;;;;;;;;4809461;29;20353;-60
2023/09/27 02:46:43;;;;;;;;;;;;;;;;;;4833251;29;20296;-60
2023/09/27 02:49:10;;;;;;;;;;;;;;;;;;4825225;29;20429;-60
2023/09/27 02:51:37;;;;;;;;;;;;;;;;;;4835970;29;19970;-60
2023/09/27 02:54:04;;;;;;;;;;;;;;;;;;4837864;29;20324;-60
2023/09/27 02:56:31;;;;;;;;;;;;;;;;;;4835608;29;19932;-60
2023/09/27 02:58:57;;;;;;;;;;;;;;;;;;4818789;29;20530;-60
2023/09/27 03:01:24;;;;;;;;;;;;;;;;;;4834838;29;20030;-60
2023/09/27 03:03:50;;;;;;;;;;;;;;;;;;4821029;29;19939;-60
2023/09/27 03:06:17;;;;;;;;;;;;;;;;;;4832968;29;20038;-60
2023/09/27 03:08:44;;;;;;;;;;;;;;;;;;4829278;29;19939;-60
2023/09/27 03:11:10;;;;;;;;;;;;;;;;;;4828761;29;20384;-60
2023/09/27 03:13:37;;;;;;;;;;;;;;;;;;4833113;29;19963;-60
2023/09/27 03:16:04;;;;;;;;;;;;;;;;;;4827764;29;20273;-60
2023/09/27 03:18:31;;;;;;;;;;;;;;;;;;4811498;29;19928;-60
2023/09/27 03:20:58;;;;;;;;;;;;;;;;;;4814073;29;19965;-60
2023/09/27 03:23:24;;;;;;;;;;;;;;;;;;4814789;29;19977;-60
2023/09/27 03:25:51;;;;;;;;;;;;;;;;;;4831387;29;19935;-60
2023/09/27 03:28:18;;;;;;;;;;;;;;;;;;4828890;29;19928;-60
2023/09/27 03:30:45;;;;;;;;;;;;;;;;;;4820523;29;19989;-60
2023/09/27 03:33:11;;;;;;;;;;;;;;;;;;4816750;29;20467;-60
2023/09/27 03:35:38;;;;;;;;;;;;;;;;;;4825377;29;20036;-60
2023/09/27 03:38:05;;;;;;;;;;;;;;;;;;4823341;29;19928;-60
2023/09/27 03:40:32;;;;;;;;;;;;;;;;;;4821447;29;19935;-60
2023/09/27 03:42:58;;;;;;;;;;;;;;;;;;4837596;29;19932;-60
2023/09/27 03:45:25;;;;;;;;;;;;;;;;;;4813965;29;19967;-60
2023/09/27 03:47:51;;;;;;;;;;;;;;;;;;4824760;29;20027;-59
2023/09/27 03:50:20;;;;;;;;;;;;;;;;;;4812511;29;19940;-60
2023/09/27 03:52:47;;;;;;;;;;;;;;;;;;4821784;29;20622;-60
2023/09/27 03:55:13;;;;;;;;;;;;;;;;;;4840518;29;19933;-60
2023/09/27 03:57:40;;;;;;;;;;;;;;;;;;4815907;29;20304;-59
2023/09/27 04:00:09;;;;;;;;;;;;;;;;;;4834044;29;19928;-60
2023/09/27 04:02:39;;;;;;;;;;;;;;;;;;4842228;29;20392;-60
2023/09/27 04:05:05;;;;;;;;;;;;;;;;;;4836003;29;19971;-60
2023/09/27 04:07:32;;;;;;;;;;;;;;;;;;4825442;29;20043;-60
2023/09/27 04:10:00;;;;;;;;;;;;;;;;;;4814505;29;20186;-59
2023/09/27 04:12:26;;;;;;;;;;;;;;;;;;4825831;29;20357;-60
2023/09/27 04:14:53;;;;;;;;;;;;;;;;;;4838143;29;19936;-60
2023/09/27 04:17:19;;;;;;;;;;;;;;;;;;4829530;29;20001;-60
2023/09/27 04:19:46;;;;;;;;;;;;;;;;;;4837844;29;20015;-60
2023/09/27 04:22:12;;;;;;;;;;;;;;;;;;4838439;29;20043;-60
2023/09/27 04:24:39;;;;;;;;;;;;;;;;;;4823341;29;19929;-60
2023/09/27 04:27:07;;;;;;;;;;;;;;;;;;4829037;29;19932;-60
2023/09/27 04:29:34;;;;;;;;;;;;;;;;;;4832011;29;19939;-61
2023/09/27 04:32:01;;;;;;;;;;;;;;;;;;4833274;29;20007;-59
2023/09/27 04:34:28;;;;;;;;;;;;;;;;;;4831756;29;19937;-59
2023/09/27 04:36:55;;;;;;;;;;;;;;;;;;4838269;29;19975;-59
2023/09/27 04:39:21;;;;;;;;;;;;;;;;;;4828396;29;19936;-59
2023/09/27 04:41:48;;;;;;;;;;;;;;;;;;4827090;29;20296;-59
2023/09/27 04:44:14;;;;;;;;;;;;;;;;;;4840113;29;20054;-59
2023/09/27 04:46:41;;;;;;;;;;;;;;;;;;4835956;29;20311;-59
2023/09/27 04:49:08;;;;;;;;;;;;;;;;;;4828682;29;19932;-59
2023/09/27 04:51:34;;;;;;;;;;;;;;;;;;4830059;29;20351;-59
2023/09/27 04:54:03;;;;;;;;;;;;;;;;;;4838369;29;19984;-59
2023/09/27 04:56:30;;;;;;;;;;;;;;;;;;4839850;29;19940;-59
2023/09/27 04:58:58;;;;;;;;;;;;;;;;;;4843916;29;20027;-59
2023/09/27 05:01:25;;;;;;;;;;;;;;;;;;4840806;29;19928;-60
2023/09/27 05:03:52;;;;;;;;;;;;;;;;;;4821288;29;19933;-59
2023/09/27 05:06:18;;;;;;;;;;;;;;;;;;4829890;29;19978;-59
2023/09/27 05:08:45;;;;;;;;;;;;;;;;;;4815374;29;19943;-61
2023/09/27 05:11:12;;;;;;;;;;;;;;;;;;4829166;29;19929;-60
2023/09/27 05:13:39;;;;;;;;;;;;;;;;;;4838314;29;20600;-60
2023/09/27 05:16:05;;;;;;;;;;;;;;;;;;4838922;29;20257;-59
2023/09/27 05:18:32;;;;;;;;;;;;;;;;;;4833864;29;20453;-59
2023/09/27 05:21:00;;;;;;;;;;;;;;;;;;4840977;29;19936;-59
2023/09/27 05:23:26;;;;;;;;;;;;;;;;;;4830782;29;20125;-59
2023/09/27 05:25:53;;;;;;;;;;;;;;;;;;4827320;29;19989;-59
2023/09/27 05:28:19;;;;;;;;;;;;;;;;;;4829870;29;20023;-59
2023/09/27 05:30:46;;;;;;;;;;;;;;;;;;4841725;29;19949;-59
2023/09/27 05:33:12;;;;;;;;;;;;;;;;;;4834481;29;19934;-59
2023/09/27 05:35:39;;;;;;;;;;;;;;;;;;4831364;29;19932;-59
2023/09/27 05:38:06;;;;;;;;;;;;;;;;;;4829091;29;20432;-59
2023/09/27 05:40:32;;;;;;;;;;;;;;;;;;4836397;29;19937;-59
2023/09/27 05:42:59;;;;;;;;;;;;;;;;;;4830637;29;20822;-59
2023/09/27 05:45:25;;;;;;;;;;;;;;;;;;4839624;29;20297;-59
2023/09/27 05:47:52;;;;;;;;;;;;;;;;;;4833150;29;19933;-59
2023/09/27 05:50:18;;;;;;;;;;;;;;;;;;4815616;29;19933;-59
2023/09/27 05:52:46;;;;;;;;;;;;;;;;;;4830383;29;20372;-60
2023/09/27 05:55:12;;;;;;;;;;;;;;;;;;4834487;29;19982;-59
2023/09/27 05:57:39;;;;;;;;;;;;;;;;;;4830764;29;19932;-59
2023/09/27 06:00:14;;;;;;;;;;;;;;;;;;4831145;29;19939;-59
2023/09/27 06:02:41;;;;;;;;;;;;;;;;;;4829762;29;19978;-59
2023/09/27 06:05:08;;;;;;;;;;;;;;;;;;4840634;29;20019;-59
2023/09/27 06:07:34;;;;;;;;;;;;;;;;;;4830581;29;19946;-59
2023/09/27 06:10:01;;;;;;;;;;;;;;;;;;4831922;29;20394;-60
2023/09/27 06:12:28;;;;;;;;;;;;;;;;;;4825972;29;19939;-60
2023/09/27 06:14:54;;;;;;;;;;;;;;;;;;4827509;29;19933;-60
2023/09/27 06:17:21;;;;;;;;;;;;;;;;;;4837151;29;20027;-60
2023/09/27 06:19:48;;;;;;;;;;;;;;;;;;4829045;29;19949;-60
2023/09/27 06:22:15;;;;;;;;;;;;;;;;;;4824635;29;19968;-59
2023/09/27 06:24:42;;;;;;;;;;;;;;;;;;4834537;29;19933;-60
2023/09/27 06:27:09;;;;;;;;;;;;;;;;;;4836045;29;21114;-60
2023/09/27 06:29:35;;;;;;;;;;;;;;;;;;4823566;29;20419;-59
2023/09/27 06:32:03;;;;;;;;;;;;;;;;;;4837793;29;19971;-60
2023/09/27 06:34:29;;;;;;;;;;;;;;;;;;4814212;29;19939;-60
2023/09/27 06:36:56;;;;;;;;;;;;;;;;;;4831387;29;20003;-59
2023/09/27 06:39:23;;;;;;;;;;;;;;;;;;4833782;29;19929;-59
2023/09/27 06:41:50;;;;;;;;;;;;;;;;;;4828596;29;20360;-60
2023/09/27 06:44:18;;;;;;;;;;;;;;;;;;4823444;29;20032;-60
2023/09/27 06:46:45;;;;;;;;;;;;;;;;;;4827593;29;19960;-60
2023/09/27 06:49:12;;;;;;;;;;;;;;;;;;4824872;29;19932;-60
2023/09/27 06:51:38;;;;;;;;;;;;;;;;;;4828564;29;19942;-59
2023/09/27 06:54:05;;;;;;;;;;;;;;;;;;4824794;29;19936;-60
2023/09/27 06:56:32;;;;;;;;;;;;;;;;;;4831121;29;19929;-60
2023/09/27 06:58:59;;;;;;;;;;;;;;;;;;4808030;29;20015;-59
2023/09/27 07:01:25;;;;;;;;;;;;;;;;;;4829929;29;19929;-60
2023/09/27 07:03:52;;;;;;;;;;;;;;;;;;4833103;29;20011;-60
2023/09/27 07:06:18;;;;;;;;;;;;;;;;;;4828786;29;20027;-60
2023/09/27 07:08:52;;;;;;;;;;;;;;;;;;4827556;29;20384;-60
2023/09/27 07:11:19;;;;;;;;;;;;;;;;;;4823110;29;19944;-59
2023/09/27 07:13:46;;;;;;;;;;;;;;;;;;4812831;29;20016;-60
2023/09/27 07:16:12;;;;;;;;;;;;;;;;;;4830208;29;20307;-59
2023/09/27 07:18:39;;;;;;;;;;;;;;;;;;4825083;29;19932;-59
2023/09/27 07:21:07;;;;;;;;;;;;;;;;;;4831154;29;19993;-59
2023/09/27 07:23:36;;;;;;;;;;;;;;;;;;4836201;29;19933;-59
2023/09/27 07:26:04;;;;;;;;;;;;;;;;;;4847867;29;21034;-59
2023/09/27 07:28:31;;;;;;;;;;;;;;;;;;4838716;29;20004;-60
2023/09/27 07:30:58;;;;;;;;;;;;;;;;;;4840987;29;19928;-60
2023/09/27 07:33:24;;;;;;;;;;;;;;;;;;4827213;29;19941;-60
2023/09/27 07:35:52;;;;;;;;;;;;;;;;;;4841948;29;19958;-60
2023/09/27 07:38:18;;;;;;;;;;;;;;;;;;4828874;29;19929;-60
2023/09/27 07:40:45;;;;;;;;;;;;;;;;;;4838826;29;19933;-60
2023/09/27 07:43:11;;;;;;;;;;;;;;;;;;4810349;29;19976;-60
2023/09/27 07:45:42;;;;;;;;;;;;;;;;;;4831614;29;19935;-60
2023/09/27 07:48:08;;;;;;;;;;;;;;;;;;4839649;29;19932;-59
2023/09/27 07:50:37;;;;;;;;;;;;;;;;;;4835419;29;20420;-60
2023/09/27 07:53:03;;;;;;;;;;;;;;;;;;4837908;29;19937;-60
2023/09/27 07:55:43;;;;;;;;;;;;;;;;;;4834405;29;19939;-60
2023/09/27 07:58:30;;;;;;;;;;;;;;;;;;4834723;29;19982;-60
2023/09/27 08:00:57;;;;;;;;;;;;;;;;;;4838774;29;19997;-60
2023/09/27 08:03:23;;;;;;;;;;;;;;;;;;4829003;29;19960;-60
2023/09/27 08:05:50;;;;;;;;;;;;;;;;;;4832656;29;19933;-60
2023/09/27 08:08:16;;;;;;;;;;;;;;;;;;4825863;29;19937;-60
2023/09/27 08:10:45;;;;;;;;;;;;;;;;;;4824610;29;19933;-60
2023/09/27 08:13:12;;;;;;;;;;;;;;;;;;4839792;29;19936;-60
2023/09/27 08:15:39;;;;;;;;;;;;;;;;;;4829376;29;19992;-60
2023/09/27 08:18:06;;;;;;;;;;;;;;;;;;4832599;29;20047;-60
2023/09/27 08:20:33;;;;;;;;;;;;;;;;;;4828970;29;20015;-59
2023/09/27 08:22:59;;;;;;;;;;;;;;;;;;4832308;29;19933;-60
2023/09/27 08:25:26;;;;;;;;;;;;;;;;;;4832068;29;20001;-60
2023/09/27 08:27:55;;;;;;;;;;;;;;;;;;4845342;29;20464;-59
2023/09/27 08:30:21;;;;;;;;;;;;;;;;;;4834640;29;19932;-60
2023/09/27 08:32:48;;;;;;;;;;;;;;;;;;4833405;29;20281;-60
2023/09/27 08:35:14;;;;;;;;;;;;;;;;;;4834818;29;19939;-60
2023/09/27 08:37:41;;;;;;;;;;;;;;;;;;4831710;29;19929;-60
2023/09/27 08:40:12;;;;;;;;;;;;;;;;;;4847323;29;19978;-59
2023/09/27 08:42:39;;;;;;;;;;;;;;;;;;4832340;29;20316;-59
2023/09/27 08:45:06;;;;;;;;;;;;;;;;;;4829531;29;19979;-60
2023/09/27 08:47:33;;;;;;;;;;;;;;;;;;4834289;29;19933;-59
2023/09/27 08:49:59;;;;;;;;;;;;;;;;;;4838135;29;20302;-60
2023/09/27 08:52:26;;;;;;;;;;;;;;;;;;4826458;29;19983;-60
2023/09/27 08:54:52;;;;;;;;;;;;;;;;;;4835301;29;20020;-60
2023/09/27 08:57:19;;;;;;;;;;;;;;;;;;4830660;29;19936;-60
2023/09/27 08:59:46;;;;;;;;;;;;;;;;;;4830140;29;19933;-60
2023/09/27 09:02:13;;;;;;;;;;;;;;;;;;4822228;29;19933;-60
2023/09/27 09:04:40;;;;;;;;;;;;;;;;;;4823333;29;19955;-60
2023/09/27 09:07:07;;;;;;;;;;;;;;;;;;4829045;29;19951;-60
2023/09/27 09:09:35;;;;;;;;;;;;;;;;;;4830246;29;19932;-60
2023/09/27 09:12:01;;;;;;;;;;;;;;;;;;4830320;29;19929;-60
2023/09/27 09:14:31;;;;;;;;;;;;;;;;;;4831003;29;19939;-60
2023/09/27 09:16:58;;;;;;;;;;;;;;;;;;4832033;29;19991;-59
2023/09/27 09:19:27;;;;;;;;;;;;;;;;;;4819821;29;19935;-60
2023/09/27 09:21:54;;;;;;;;;;;;;;;;;;4820094;29;20028;-59
2023/09/27 09:24:21;;;;;;;;;;;;;;;;;;4841548;29;19936;-59
2023/09/27 09:26:49;;;;;;;;;;;;;;;;;;4838051;29;19940;-59
2023/09/27 09:29:18;;;;;;;;;;;;;;;;;;4827738;29;19939;-59
2023/09/27 09:31:45;;;;;;;;;;;;;;;;;;4831320;29;19988;-59
2023/09/27 09:34:12;;;;;;;;;;;;;;;;;;4828965;29;19985;-59
2023/09/27 09:36:39;;;;;;;;;;;;;;;;;;4838741;29;19932;-59
2023/09/27 09:39:05;;;;;;;;;;;;;;;;;;4818815;29;19932;-59
2023/09/27 09:41:31;;;;;;;;;;;;;;;;;;4832659;29;20033;-59
2023/09/27 09:43:58;;;;;;;;;;;;;;;;;;4836870;29;19932;-59
2023/09/27 09:46:24;;;;;;;;;;;;;;;;;;4845562;29;20019;-59
2023/09/27 09:48:51;;;;;;;;;;;;;;;;;;4830130;29;19977;-59
2023/09/27 09:51:18;;;;;;;;;;;;;;;;;;4826551;29;19939;-59
2023/09/27 09:53:47;;;;;;;;;;;;;;;;;;4839536;29;19939;-59
2023/09/27 09:56:14;;;;;;;;;;;;;;;;;;4826878;29;19936;-59
2023/09/27 09:58:42;;;;;;;;;;;;;;;;;;4832629;29;19929;-60
2023/09/27 10:01:08;;;;;;;;;;;;;;;;;;4824795;29;20507;-59
2023/09/27 10:03:47;;;;;;;;;;;;;;;;;;5127596;27;20042;-60
2023/09/27 10:06:14;;;;;;;;;;;;;;;;;;5139759;27;19937;-60
2023/09/27 10:08:40;;;;;;;;;;;;;;;;;;5137307;27;20011;-59
2023/09/27 10:11:08;;;;;;;;;;;;;;;;;;5131868;27;20034;-60
2023/09/27 10:13:34;;;;;;;;;;;;;;;;;;5138656;27;19928;-59
2023/09/27 10:16:01;;;;;;;;;;;;;;;;;;5139466;27;20342;-59
2023/09/27 10:18:26;;;;;;;;;;;;;;;;;;5127773;27;20426;-59
2023/09/27 10:20:53;;;;;;;;;;;;;;;;;;5134820;27;19927;-59
2023/09/27 10:23:19;;;;;;;;;;;;;;;;;;5130023;27;19976;-59
2023/09/27 10:25:46;;;;;;;;;;;;;;;;;;5138237;27;19980;-59
2023/09/27 10:28:13;;;;;;;;;;;;;;;;;;5134890;27;19927;-60
2023/09/27 10:30:39;;;;;;;;;;;;;;;;;;5137875;27;19924;-59
2023/09/27 10:33:06;;;;;;;;;;;;;;;;;;5136493;27;19966;-59
2023/09/27 10:35:33;;;;;;;;;;;;;;;;;;5137895;27;20357;-59
2023/09/27 10:37:59;;;;;;;;;;;;;;;;;;5113016;27;19970;-58
2023/09/27 10:40:26;;;;;;;;;;;;;;;;;;5138260;27;20755;-60
2023/09/27 10:42:52;;;;;;;;;;;;;;;;;;5139529;27;20265;-58
2023/09/27 10:45:19;;;;;;;;;;;;;;;;;;5136703;27;20014;-60
2023/09/27 10:47:46;;;;;;;;;;;;;;;;;;5133449;27;19923;-60
2023/09/27 10:50:13;;;;;;;;;;;;;;;;;;5138160;27;20014;-60
2023/09/27 10:52:40;;;;;;;;;;;;;;;;;;5133884;27;20024;-61
2023/09/27 10:55:06;;;;;;;;;;;;;;;;;;5131845;27;19924;-60
2023/09/27 10:57:33;;;;;;;;;;;;;;;;;;5136777;27;19927;-60
2023/09/27 10:59:59;;;;;;;;;;;;;;;;;;5134565;27;19967;-60
2023/09/27 11:02:26;;;;;;;;;;;;;;;;;;5135530;27;20460;-60
2023/09/27 11:04:53;;;;;;;;;;;;;;;;;;5135794;27;19931;-60
2023/09/27 11:07:19;;;;;;;;;;;;;;;;;;5141251;27;19927;-60
2023/09/27 11:09:48;;;;;;;;;;;;;;;;;;5118461;27;19923;-60
2023/09/27 11:12:14;;;;;;;;;;;;;;;;;;5142159;27;19946;-60
2023/09/27 11:14:41;;;;;;;;;;;;;;;;;;5123089;27;19939;-60
2023/09/27 11:17:07;;;;;;;;;;;;;;;;;;5123864;27;20373;-60
2023/09/27 11:19:34;;;;;;;;;;;;;;;;;;5120421;27;19950;-59
2023/09/27 11:22:00;;;;;;;;;;;;;;;;;;5123981;27;19970;-60
2023/09/27 11:24:27;;;;;;;;;;;;;;;;;;5121636;27;19961;-59
2023/09/27 11:26:54;;;;;;;;;;;;;;;;;;5117565;27;19923;-60
2023/09/27 11:29:21;;;;;;;;;;;;;;;;;;5125165;27;20000;-60
2023/09/27 11:31:47;;;;;;;;;;;;;;;;;;5118900;27;19927;-60
2023/09/27 11:34:14;;;;;;;;;;;;;;;;;;5109213;27;20395;-60
2023/09/27 11:36:41;;;;;;;;;;;;;;;;;;5123636;27;19954;-59
2023/09/27 11:39:07;;;;;;;;;;;;;;;;;;5103191;27;19930;-59
2023/09/27 11:41:34;;;;;;;;;;;;;;;;;;5120699;27;19975;-59
2023/09/27 11:44:00;;;;;;;;;;;;;;;;;;5119422;27;20488;-60
2023/09/27 11:46:27;;;;;;;;;;;;;;;;;;5121741;27;20011;-60
2023/09/27 11:48:54;;;;;;;;;;;;;;;;;;5118279;27;20392;-60
2023/09/27 11:51:23;;;;;;;;;;;;;;;;;;5122718;27;20022;-60
2023/09/27 11:53:50;;;;;;;;;;;;;;;;;;5115191;27;19932;-60
2023/09/27 11:56:16;;;;;;;;;;;;;;;;;;5121862;27;19959;-60
2023/09/27 11:58:43;;;;;;;;;;;;;;;;;;5115483;27;19924;-60
2023/09/27 12:01:11;;;;;;;;;;;;;;;;;;5119979;27;20369;-64
2023/09/27 12:03:38;;;;;;;;;;;;;;;;;;5123555;27;19973;-59
2023/09/27 12:06:06;;;;;;;;;;;;;;;;;;5116507;27;20395;-59
2023/09/27 12:08:32;;;;;;;;;;;;;;;;;;5122445;27;20015;-60
2023/09/27 12:10:59;;;;;;;;;;;;;;;;;;5123763;27;20707;-59
2023/09/27 12:13:25;;;;;;;;;;;;;;;;;;5120614;27;19931;-60
2023/09/27 12:15:52;;;;;;;;;;;;;;;;;;5114808;27;19958;-59
2023/09/27 12:18:19;;;;;;;;;;;;;;;;;;5122021;27;20006;-59
2023/09/27 12:20:45;;;;;;;;;;;;;;;;;;5126055;27;20396;-59
2023/09/27 12:23:13;;;;;;;;;;;;;;;;;;5120029;27;20033;-59
2023/09/27 12:25:39;;;;;;;;;;;;;;;;;;5104743;28;19924;-59
2023/09/27 12:28:06;;;;;;;;;;;;;;;;;;5121967;27;19928;-59
2023/09/27 12:30:32;;;;;;;;;;;;;;;;;;5115459;27;20026;-59
2023/09/27 12:32:59;;;;;;;;;;;;;;;;;;5091269;27;19978;-59
2023/09/27 12:35:26;;;;;;;;;;;;;;;;;;5120262;27;19928;-59
2023/09/27 12:37:52;;;;;;;;;;;;;;;;;;5117966;27;19974;-59
2023/09/27 12:40:19;;;;;;;;;;;;;;;;;;5117022;27;20305;-59
2023/09/27 12:42:45;;;;;;;;;;;;;;;;;;5109172;27;19930;-59
2023/09/27 12:45:12;;;;;;;;;;;;;;;;;;5113341;27;20480;-59
2023/09/27 12:47:38;;;;;;;;;;;;;;;;;;5128830;27;19935;-60
2023/09/27 12:50:06;;;;;;;;;;;;;;;;;;5117383;27;19923;-59
2023/09/27 12:52:32;;;;;;;;;;;;;;;;;;5119643;27;19934;-59
2023/09/27 12:54:59;;;;;;;;;;;;;;;;;;5122559;27;19967;-59
2023/09/27 12:57:25;;;;;;;;;;;;;;;;;;5108204;27;20014;-59
2023/09/27 12:59:52;;;;;;;;;;;;;;;;;;5116547;27;19958;-59
2023/09/27 13:02:18;;;;;;;;;;;;;;;;;;5122931;27;20357;-59
2023/09/27 13:04:45;;;;;;;;;;;;;;;;;;5112548;27;19928;-59
2023/09/27 13:07:12;;;;;;;;;;;;;;;;;;5121756;27;19927;-59
2023/09/27 13:09:39;;;;;;;;;;;;;;;;;;5120364;27;19927;-59
2023/09/27 13:12:06;;;;;;;;;;;;;;;;;;5115247;27;19927;-59
2023/09/27 13:14:32;;;;;;;;;;;;;;;;;;5119588;27;20301;-59
2023/09/27 13:16:59;;;;;;;;;;;;;;;;;;5115406;27;19928;-59
2023/09/27 13:19:25;;;;;;;;;;;;;;;;;;5118219;27;20026;-59
2023/09/27 13:21:52;;;;;;;;;;;;;;;;;;5117989;27;19924;-59
2023/09/27 13:24:18;;;;;;;;;;;;;;;;;;5115896;27;20346;-59
2023/09/27 13:26:45;;;;;;;;;;;;;;;;;;5115135;27;19932;-59
2023/09/27 13:29:11;;;;;;;;;;;;;;;;;;5115308;27;20022;-59
2023/09/27 13:31:38;;;;;;;;;;;;;;;;;;5115015;27;19936;-59
2023/09/27 13:34:05;;;;;;;;;;;;;;;;;;5115219;27;19932;-59
2023/09/27 13:36:31;;;;;;;;;;;;;;;;;;5121679;27;20030;-60
2023/09/27 13:38:58;;;;;;;;;;;;;;;;;;5111133;27;20372;-59
2023/09/27 13:41:25;;;;;;;;;;;;;;;;;;5117436;27;19923;-59
2023/09/27 13:43:52;;;;;;;;;;;;;;;;;;5119427;27;19954;-59
2023/09/27 13:46:18;;;;;;;;;;;;;;;;;;5120104;27;19984;-59
2023/09/27 13:48:45;;;;;;;;;;;;;;;;;;5112755;27;20063;-59
2023/09/27 13:51:12;;;;;;;;;;;;;;;;;;5115508;27;19939;-59
2023/09/27 13:53:38;;;;;;;;;;;;;;;;;;5120205;27;20006;-59
2023/09/27 13:56:05;;;;;;;;;;;;;;;;;;5098421;27;19934;-59
2023/09/27 13:58:31;;;;;;;;;;;;;;;;;;5117857;27;19931;-59
2023/09/27 14:00:58;;;;;;;;;;;;;;;;;;5120566;27;20206;-59
2023/09/27 14:03:24;;;;;;;;;;;;;;;;;;5112380;27;19998;-59
2023/09/27 14:05:51;;;;;;;;;;;;;;;;;;5122027;27;19924;-59
2023/09/27 14:08:18;;;;;;;;;;;;;;;;;;5099766;28;20602;-59
2023/09/27 14:10:44;;;;;;;;;;;;;;;;;;5119504;28;19934;-59
2023/09/27 14:13:11;;;;;;;;;;;;;;;;;;5118142;27;19928;-59
2023/09/27 14:15:38;;;;;;;;;;;;;;;;;;5119267;27;19924;-59
2023/09/27 14:18:04;;;;;;;;;;;;;;;;;;5119418;27;19939;-59
2023/09/27 14:20:31;;;;;;;;;;;;;;;;;;5118714;27;20925;-60
2023/09/27 14:22:58;;;;;;;;;;;;;;;;;;5115734;27;19927;-60
2023/09/27 14:25:26;;;;;;;;;;;;;;;;;;5112671;27;19927;-60
2023/09/27 14:27:52;;;;;;;;;;;;;;;;;;5115691;27;20030;-60
2023/09/27 14:30:19;;;;;;;;;;;;;;;;;;5112286;27;19958;-59
2023/09/27 14:32:45;;;;;;;;;;;;;;;;;;5113415;27;19934;-60
2023/09/27 14:35:12;;;;;;;;;;;;;;;;;;5121842;27;19927;-59
2023/09/27 14:37:42;;;;;;;;;;;;;;;;;;5119423;27;20602;-60
2023/09/27 14:40:09;;;;;;;;;;;;;;;;;;5114758;27;19974;-60
2023/09/27 14:42:36;;;;;;;;;;;;;;;;;;5112749;27;19934;-60
2023/09/27 14:45:02;;;;;;;;;;;;;;;;;;5118324;27;20385;-59
2023/09/27 14:47:29;;;;;;;;;;;;;;;;;;5094725;28;19928;-59
2023/09/27 14:49:57;;;;;;;;;;;;;;;;;;5115541;27;19931;-59
2023/09/27 14:52:23;;;;;;;;;;;;;;;;;;5105445;27;19927;-59
2023/09/27 14:54:50;;;;;;;;;;;;;;;;;;5111624;27;20523;-59
2023/09/27 14:57:17;;;;;;;;;;;;;;;;;;5121887;27;20018;-59
2023/09/27 14:59:43;;;;;;;;;;;;;;;;;;5125862;27;19954;-59
2023/09/27 15:02:10;;;;;;;;;;;;;;;;;;5120707;27;20043;-59
2023/09/27 15:04:36;;;;;;;;;;;;;;;;;;5124037;27;19946;-59
2023/09/27 15:07:03;;;;;;;;;;;;;;;;;;5119964;27;20557;-59
2023/09/27 15:09:30;;;;;;;;;;;;;;;;;;5117749;27;19928;-59
2023/09/27 15:11:56;;;;;;;;;;;;;;;;;;5124825;27;19958;-59
2023/09/27 15:14:23;;;;;;;;;;;;;;;;;;5119316;27;19928;-59
2023/09/27 15:16:50;;;;;;;;;;;;;;;;;;5112713;27;19931;-59
2023/09/27 15:19:16;;;;;;;;;;;;;;;;;;5112751;27;19923;-58
2023/09/27 15:21:43;;;;;;;;;;;;;;;;;;5115027;27;20015;-59
2023/09/27 15:24:10;;;;;;;;;;;;;;;;;;5119245;27;20357;-59
2023/09/27 15:26:36;;;;;;;;;;;;;;;;;;5121729;27;19950;-58
2023/09/27 15:29:03;;;;;;;;;;;;;;;;;;5120507;27;19927;-60
2023/09/27 15:31:29;;;;;;;;;;;;;;;;;;5119047;27;19947;-59
2023/09/27 15:33:56;;;;;;;;;;;;;;;;;;5121489;27;19949;-59
2023/09/27 15:36:22;;;;;;;;;;;;;;;;;;5117121;27;19924;-59
2023/09/27 15:38:49;;;;;;;;;;;;;;;;;;5116247;27;19927;-59
2023/09/27 15:41:15;;;;;;;;;;;;;;;;;;5105858;27;19924;-59
2023/09/27 15:43:42;;;;;;;;;;;;;;;;;;5125204;27;19927;-58
2023/09/27 15:46:09;;;;;;;;;;;;;;;;;;5117694;27;20385;-59
2023/09/27 15:48:36;;;;;;;;;;;;;;;;;;5116608;27;20018;-59
2023/09/27 15:51:02;;;;;;;;;;;;;;;;;;5106730;27;19927;-59
2023/09/27 15:53:29;;;;;;;;;;;;;;;;;;5117457;27;19927;-59
2023/09/27 15:55:56;;;;;;;;;;;;;;;;;;5125727;27;19977;-59
2023/09/27 15:58:22;;;;;;;;;;;;;;;;;;5123107;27;19962;-59
2023/09/27 16:00:49;;;;;;;;;;;;;;;;;;5119397;27;19996;-58
2023/09/27 16:03:16;;;;;;;;;;;;;;;;;;5118301;27;20552;-58
2023/09/27 16:05:42;;;;;;;;;;;;;;;;;;5129426;27;19924;-58
2023/09/27 16:08:09;;;;;;;;;;;;;;;;;;5102704;27;19924;-58
2023/09/27 16:10:36;;;;;;;;;;;;;;;;;;5120046;27;20384;-58
2023/09/27 16:13:03;;;;;;;;;;;;;;;;;;5126789;27;19927;-58
2023/09/27 16:15:32;;;;;;;;;;;;;;;;;;5121507;27;19937;-59
2023/09/27 16:17:58;;;;;;;;;;;;;;;;;;5122871;27;20292;-59
2023/09/27 16:20:27;;;;;;;;;;;;;;;;;;5111981;27;19924;-59
2023/09/27 16:22:54;;;;;;;;;;;;;;;;;;5117078;27;19928;-59
2023/09/27 16:25:21;;;;;;;;;;;;;;;;;;5118373;27;19928;-59
2023/09/27 16:27:47;;;;;;;;;;;;;;;;;;5119562;27;20026;-59
2023/09/27 16:30:14;;;;;;;;;;;;;;;;;;5119938;27;19924;-59
2023/09/27 16:32:40;;;;;;;;;;;;;;;;;;5124244;27;19923;-59
2023/09/27 16:35:07;;;;;;;;;;;;;;;;;;5115987;27;20018;-59
2023/09/27 16:37:35;;;;;;;;;;;;;;;;;;5115303;27;19930;-59
2023/09/27 16:40:03;;;;;;;;;;;;;;;;;;5112590;27;20433;-59
2023/09/27 16:42:29;;;;;;;;;;;;;;;;;;5120701;27;19935;-59